KGWO/GWO METAR and TAF weather

Enter ICAO airport designator
Station Type Date Time Source
KGWO METAR 2018/12/15 22:53 UTC NOAA

KGWO 152253Z AUTO VRB04KT 10SM OVC017 10/07 A3003 RMK AO2 SLP169 T01000067


Station Type Date Time Source
KGWO Decoded METAR 2018/12/15 22:53 UTC NOAA

GREENWOOD-LEFLORE AIRPORT, MS, United States (KGWO) 33-30N 090-05W 44M
Dec 15, 2018 - 05:53 PM EST / 2018.12.15 2253 UTC
Wind: Variable at 5 MPH (4 KT):0
Visibility: 10 mile(s):0
Sky conditions: overcast
Temperature: 50.0 F (10.0 C)
Dew Point: 44.1 F (6.7 C)
Relative Humidity: 79%
Pressure (altimeter): 30.03 in. Hg (1016 hPa)
ob: KGWO 152253Z AUTO VRB04KT 10SM OVC017 10/07 A3003 RMK AO2 SLP169 T01000067
cycle: 23

Station Type Date Time Source
KGWO TAF 2018/12/15 22:24 UTC NOAA

TAF
AMD KGWO 152222Z 1522/1618 27005KT P6SM OVC015
FM160200 29003KT P6SM OVC007
FM160500 30006KT P6SM BKN015
FM160900 33004KT P6SM FEW015 SCT250


Example: see airport list